Airfield :
LOGIN :

Register | Disclaimer

   EN    FR    IT 

 










Legend :    VFR   Marginal VFR   IFR   Intensive IFR   Very Intensive IFR
Visi :
Ceiling :
>= 8 km
>= 3000ft
5 to 8 km
1000 to 3000 ft
1500m to 5 km
500 to 1000 ft
800 to 1500m
200 to 500 ft
< 800m
< 200 ft
Symbols :   Thunderstorms  Fog  Heavy snow  Heavy precipitations  Wind > 20 kt
SIGMETs :     Misc.  Thunderstorms  Icing  Turbulence  Mountain Waves  Volcanic Ashes






- Airport Elevation : 39 ft
- IATA code : TRS


LIPQ - Friuli Venezia Giulia Apt. Trieste

CURRENT METAR :
  • 301620Z AUTO 19006KT 140V230 9999 NCD 30/21 Q1011

EXPIRED METARs :
  • 301550Z AUTO 20007KT 150V240 9999 NCD 30/20 Q1011
  • 301520Z AUTO 20007KT 9999 NCD 30/19 Q1011
  • 301450Z AUTO 19007KT 140V260 9999 NCD 30/19 Q1011
  • 301420Z AUTO 20008KT 150V220 9999 NCD 31/19 Q1011

TAF TAF LIPQ
Valid from the 30 at 12:00 until the 01 at 12:00 UTC


301100Z 3012/0112 19010KT 9999 FEW040
BECMG 3016/3018 08005KT
BECMG 0110/0112 19010KT



MET'MAP, your aeronautical weather chart ! - Copyright ORBIFLY December 2007 - Disclaimer

ORBIFLY MET'MAP TEAM :

Programming & Development : Alexandra Zaïnal
Original concept : Baudouin d'Aumeries
Technical & hardware support : Manuel Goepfert
Assistance : Marc-Olivier Méhu




SOURCES & CREDITS :

   NOAA